nws-alerts: Checking more than four warning/county codes can delay the loading of your pages. You should use a cron job to get the data.
EllijayWeather Station Historical Data
Daily Summary for October 2, 2018 Units:  English    Metric   Both
Daily Weekly Monthly Yearly Custom
  High: Low: Average:
Temperature: 78.4 °F 60.8 °F 68.8 °F
Dew Point: 71.1 °F 54 °F 61.7 °F
Humidity: 85% 70% 78%
Wind Speed: 0mph 0mph 0mph
Wind Gust: 0mph - -
Wind- - North
Pressure: 30.31 in 30.17 in -
Precipitation: 0 in    
Historical Graphs
 
 
Tabular Data for October 2, 2018
Time Temperature Dew Point Pressure Wind Wind Speed Wind Gust Humidity Rainfall Rate (Hourly) solar
00:04 65.1 °F 58.5 °F 30.27 in Calm     79% 0 in meteobridge W/m2
00:09 65.1 °F 58.5 °F 30.28 in Calm     79% 0 in meteobridge W/m2
00:14 65.1 °F 58.5 °F 30.28 in Calm     79% 0 in meteobridge W/m2
00:19 65.1 °F 58.5 °F 30.27 in Calm     79% 0 in meteobridge W/m2
00:24 64.9 °F 58.3 °F 30.27 in Calm     79% 0 in meteobridge W/m2
00:29 64.9 °F 58.3 °F 30.27 in Calm     79% 0 in meteobridge W/m2
00:34 64.9 °F 58.3 °F 30.27 in Calm     79% 0 in meteobridge W/m2
00:39 64.8 °F 58.1 °F 30.27 in Calm     79% 0 in meteobridge W/m2
00:44 64.8 °F 58.1 °F 30.27 in Calm     79% 0 in meteobridge W/m2
00:49 64.8 °F 58.1 °F 30.27 in Calm     79% 0 in meteobridge W/m2
00:54 64.6 °F 57.9 °F 30.27 in Calm     79% 0 in meteobridge W/m2
00:59 64.6 °F 57.9 °F 30.27 in Calm     79% 0 in meteobridge W/m2
01:04 64.6 °F 57.9 °F 30.27 in Calm     79% 0 in meteobridge W/m2
01:09 64.4 °F 57.7 °F 30.27 in Calm     79% 0 in meteobridge W/m2
01:14 64.4 °F 57.7 °F 30.27 in Calm     79% 0 in meteobridge W/m2
01:19 64.2 °F 57.6 °F 30.26 in Calm     79% 0 in meteobridge W/m2
01:24 64.2 °F 57.6 °F 30.26 in Calm     79% 0 in meteobridge W/m2
01:29 64.2 °F 57.6 °F 30.26 in Calm     79% 0 in meteobridge W/m2
01:34 64.2 °F 57.6 °F 30.26 in Calm     79% 0 in meteobridge W/m2
01:39 64 °F 57.4 °F 30.26 in Calm     79% 0 in meteobridge W/m2
01:44 64 °F 57.4 °F 30.26 in Calm     79% 0 in meteobridge W/m2
01:49 63.9 °F 57.2 °F 30.26 in Calm     79% 0 in meteobridge W/m2
01:54 63.9 °F 57.2 °F 30.26 in Calm     79% 0 in meteobridge W/m2
01:59 63.9 °F 57.2 °F 30.27 in Calm     79% 0 in meteobridge W/m2
02:04 63.7 °F 57 °F 30.26 in Calm     79% 0 in meteobridge W/m2
02:09 63.7 °F 57 °F 30.26 in Calm     79% 0 in meteobridge W/m2
02:14 63.7 °F 57 °F 30.27 in Calm     79% 0 in meteobridge W/m2
02:18 63.5 °F 56.8 °F 30.27 in Calm     79% 0 in meteobridge W/m2
02:24 63.5 °F 56.8 °F 30.26 in Calm     79% 0 in meteobridge W/m2
02:29 63.5 °F 56.8 °F 30.26 in Calm     79% 0 in meteobridge W/m2
02:34 63.3 °F 56.7 °F 30.26 in Calm     79% 0 in meteobridge W/m2
02:39 63.3 °F 56.7 °F 30.26 in Calm     79% 0 in meteobridge W/m2
02:44 63.3 °F 56.7 °F 30.26 in Calm     79% 0 in meteobridge W/m2
02:49 63.3 °F 56.7 °F 30.26 in Calm     79% 0 in meteobridge W/m2
02:54 63.1 °F 56.5 °F 30.26 in Calm     79% 0 in meteobridge W/m2
02:59 63.1 °F 56.5 °F 30.26 in Calm     79% 0 in meteobridge W/m2
03:04 63.1 °F 56.5 °F 30.26 in Calm     79% 0 in meteobridge W/m2
03:09 63.1 °F 56.5 °F 30.26 in Calm     79% 0 in meteobridge W/m2
03:14 63 °F 56.3 °F 30.26 in Calm     79% 0 in meteobridge W/m2
03:19 63 °F 56.3 °F 30.25 in Calm     79% 0 in meteobridge W/m2
03:24 63 °F 56.3 °F 30.25 in Calm     79% 0 in meteobridge W/m2
03:29 63 °F 56.3 °F 30.25 in Calm     79% 0 in meteobridge W/m2
03:34 62.8 °F 56.1 °F 30.25 in Calm     79% 0 in meteobridge W/m2
03:39 62.8 °F 56.1 °F 30.25 in Calm     79% 0 in meteobridge W/m2
03:44 62.8 °F 56.1 °F 30.25 in Calm     79% 0 in meteobridge W/m2
03:49 62.8 °F 56.1 °F 30.25 in Calm     79% 0 in meteobridge W/m2
03:54 62.8 °F 56.1 °F 30.25 in Calm     79% 0 in meteobridge W/m2
03:59 62.6 °F 55.9 °F 30.25 in Calm     79% 0 in meteobridge W/m2
04:04 62.6 °F 55.9 °F 30.25 in Calm     79% 0 in meteobridge W/m2
04:09 62.6 °F 55.9 °F 30.25 in Calm     79% 0 in meteobridge W/m2
04:14 62.4 °F 55.8 °F 30.25 in Calm     79% 0 in meteobridge W/m2
04:19 62.4 °F 55.4 °F 30.25 in Calm     78% 0 in meteobridge W/m2
04:24 62.4 °F 55.4 °F 30.25 in Calm     78% 0 in meteobridge W/m2
04:29 62.4 °F 55.4 °F 30.25 in Calm     78% 0 in meteobridge W/m2
04:34 62.4 °F 55.4 °F 30.25 in Calm     78% 0 in meteobridge W/m2
04:39 62.2 °F 55.2 °F 30.26 in Calm     78% 0 in meteobridge W/m2
04:44 62.2 °F 55.2 °F 30.26 in Calm     78% 0 in meteobridge W/m2
04:49 62.2 °F 55.2 °F 30.26 in Calm     78% 0 in meteobridge W/m2
04:54 62.1 °F 55 °F 30.26 in Calm     78% 0 in meteobridge W/m2
04:59 62.1 °F 55 °F 30.26 in Calm     78% 0 in meteobridge W/m2
05:04 62.1 °F 55 °F 30.26 in Calm     78% 0 in meteobridge W/m2
05:09 62.1 °F 55 °F 30.26 in Calm     78% 0 in meteobridge W/m2
05:14 61.9 °F 55.2 °F 30.26 in Calm     79% 0 in meteobridge W/m2
05:19 61.9 °F 54.9 °F 30.26 in Calm     78% 0 in meteobridge W/m2
05:24 61.9 °F 54.9 °F 30.26 in Calm     78% 0 in meteobridge W/m2
05:29 61.9 °F 54.9 °F 30.26 in Calm     78% 0 in meteobridge W/m2
05:34 61.9 °F 54.9 °F 30.26 in Calm     78% 0 in meteobridge W/m2
05:39 61.9 °F 54.9 °F 30.26 in Calm     78% 0 in meteobridge W/m2
05:44 61.9 °F 54.9 °F 30.26 in Calm     78% 0 in meteobridge W/m2
05:49 61.9 °F 54.9 °F 30.26 in Calm     78% 0 in meteobridge W/m2
05:54 61.9 °F 54.9 °F 30.27 in Calm     78% 0 in meteobridge W/m2
05:59 61.9 °F 54.9 °F 30.27 in Calm     78% 0 in meteobridge W/m2
06:04 61.5 °F 54.7 °F 30.27 in Calm     78% 0 in meteobridge W/m2
06:09 61.5 °F 54.7 °F 30.27 in Calm     78% 0 in meteobridge W/m2
06:14 61.5 °F 54.7 °F 30.27 in Calm     78% 0 in meteobridge W/m2
06:19 61.3 °F 54.5 °F 30.27 in Calm     78% 0 in meteobridge W/m2
06:24 61.3 °F 54.5 °F 30.27 in Calm     78% 0 in meteobridge W/m2
06:29 61.3 °F 54.5 °F 30.27 in Calm     78% 0 in meteobridge W/m2
06:34 61.3 °F 54.5 °F 30.27 in Calm     78% 0 in meteobridge W/m2
06:39 61.3 °F 54.5 °F 30.27 in Calm     78% 0 in meteobridge W/m2
06:44 61.2 °F 54.3 °F 30.27 in Calm     78% 0 in meteobridge W/m2
06:49 61.2 °F 54.3 °F 30.27 in Calm     78% 0 in meteobridge W/m2
06:54 61.2 °F 54.3 °F 30.27 in Calm     78% 0 in meteobridge W/m2
06:59 61.2 °F 54.3 °F 30.27 in Calm     78% 0 in meteobridge W/m2
07:04 61.2 °F 54.3 °F 30.28 in Calm     78% 0 in meteobridge W/m2
07:09 61.2 °F 54.3 °F 30.28 in Calm     78% 0 in meteobridge W/m2
07:14 61.2 °F 54.3 °F 30.28 in Calm     78% 0 in meteobridge W/m2
07:19 61.2 °F 54.3 °F 30.28 in Calm     78% 0 in meteobridge W/m2
07:24 61.2 °F 54.3 °F 30.28 in Calm     78% 0 in meteobridge W/m2
07:29 61.2 °F 54.3 °F 30.29 in Calm     78% 0 in meteobridge W/m2
07:34 61 °F 54.1 °F 30.29 in Calm     78% 0 in meteobridge W/m2
07:39 61 °F 54.1 °F 30.29 in Calm     78% 0 in meteobridge W/m2
07:44 61 °F 54.1 °F 30.29 in Calm     78% 0 in meteobridge W/m2
07:49 61 °F 54.1 °F 30.29 in Calm     78% 0 in meteobridge W/m2
07:54 61 °F 54.1 °F 30.29 in Calm     78% 0 in meteobridge W/m2
07:59 61 °F 54.1 °F 30.29 in Calm     78% 0 in meteobridge W/m2
08:04 61 °F 54.1 °F 30.29 in Calm     78% 0 in meteobridge W/m2
08:09 61 °F 54.1 °F 30.30 in Calm     78% 0 in meteobridge W/m2
08:14 60.8 °F 54 °F 30.30 in Calm     78% 0 in meteobridge W/m2
08:19 60.8 °F 54 °F 30.30 in Calm     78% 0 in meteobridge W/m2
08:24 61 °F 54.1 °F 30.31 in Calm     78% 0 in meteobridge W/m2
08:29 61 °F 54.1 °F 30.31 in Calm     78% 0 in meteobridge W/m2
08:34 60.8 °F 54 °F 30.31 in Calm     78% 0 in meteobridge W/m2
08:39 61 °F 54.1 °F 30.31 in Calm     78% 0 in meteobridge W/m2
08:44 61 °F 54.1 °F 30.30 in Calm     78% 0 in meteobridge W/m2
08:49 61 °F 54.1 °F 30.30 in Calm     78% 0 in meteobridge W/m2
08:54 61 °F 54.1 °F 30.30 in Calm     78% 0 in meteobridge W/m2
08:59 61.2 °F 54.3 °F 30.30 in Calm     78% 0 in meteobridge W/m2
09:04 61.2 °F 54.3 °F 30.30 in Calm     78% 0 in meteobridge W/m2
09:09 61.3 °F 54.1 °F 30.30 in Calm     77% 0 in meteobridge W/m2
09:14 61.5 °F 54.3 °F 30.30 in Calm     77% 0 in meteobridge W/m2
09:19 61.9 °F 54.7 °F 30.30 in Calm     77% 0 in meteobridge W/m2
09:24 62.2 °F 54.9 °F 30.30 in Calm     77% 0 in meteobridge W/m2
09:29 62.6 °F 55.2 °F 30.30 in Calm     77% 0 in meteobridge W/m2
09:34 63 °F 55.6 °F 30.30 in Calm     77% 0 in meteobridge W/m2
09:39 63.3 °F 55.9 °F 30.30 in Calm     77% 0 in meteobridge W/m2
09:44 63.9 °F 56.1 °F 30.30 in Calm     76% 0 in meteobridge W/m2
09:49 64.2 °F 56.5 °F 30.30 in Calm     76% 0 in meteobridge W/m2
09:54 64.8 °F 57 °F 30.30 in Calm     76% 0 in meteobridge W/m2
09:59 64.9 °F 57.2 °F 30.30 in Calm     76% 0 in meteobridge W/m2
10:04 65.3 °F 57.6 °F 30.30 in Calm     76% 0 in meteobridge W/m2
10:09 65.8 °F 58.1 °F 30.30 in Calm     76% 0 in meteobridge W/m2
10:14 66 °F 58.3 °F 30.30 in Calm     76% 0 in meteobridge W/m2
10:19 66.6 °F 58.8 °F 30.30 in Calm     76% 0 in meteobridge W/m2
10:24 66.9 °F 58.8 °F 30.30 in Calm     75% 0 in meteobridge W/m2
10:29 67.5 °F 59.5 °F 30.30 in Calm     76% 0 in meteobridge W/m2
10:34 67.8 °F 60.3 °F 30.30 in Calm     77% 0 in meteobridge W/m2
10:39 68.4 °F 61.9 °F 30.30 in Calm     80% 0 in meteobridge W/m2
10:44 68.7 °F 62.6 °F 30.30 in Calm     81% 0 in meteobridge W/m2
10:49 69.4 °F 63.3 °F 30.30 in Calm     81% 0 in meteobridge W/m2
10:54 70 °F 64.6 °F 30.30 in Calm     83% 0 in meteobridge W/m2
10:59 70.5 °F 65.1 °F 30.30 in Calm     83% 0 in meteobridge W/m2
11:04 71.1 °F 66.4 °F 30.30 in Calm     85% 0 in meteobridge W/m2
11:09 71.6 °F 66.9 °F 30.29 in Calm     85% 0 in meteobridge W/m2
11:14 72 °F 66.9 °F 30.29 in Calm     84% 0 in meteobridge W/m2
11:19 72.5 °F 67.5 °F 30.29 in Calm     84% 0 in meteobridge W/m2
11:24 72.9 °F 67.5 °F 30.29 in Calm     83% 0 in meteobridge W/m2
11:29 73 °F 67.6 °F 30.29 in Calm     83% 0 in meteobridge W/m2
11:34 73.4 °F 67.6 °F 30.29 in Calm     82% 0 in meteobridge W/m2
11:39 73.8 °F 67.3 °F 30.29 in Calm     80% 0 in meteobridge W/m2
11:44 74.1 °F 67.6 °F 30.29 in Calm     80% 0 in meteobridge W/m2
11:49 74.5 °F 67.5 °F 30.29 in Calm     79% 0 in meteobridge W/m2
11:54 74.7 °F 67.6 °F 30.29 in Calm     79% 0 in meteobridge W/m2
11:59 74.8 °F 67.5 °F 30.28 in Calm     78% 0 in meteobridge W/m2
12:04 75 °F 68 °F 30.28 in Calm     79% 0 in meteobridge W/m2
12:09 75 °F 66.9 °F 30.28 in Calm     76% 0 in meteobridge W/m2
12:14 75 °F 67.3 °F 30.28 in Calm     77% 0 in meteobridge W/m2
12:19 75.4 °F 67.6 °F 30.28 in Calm     77% 0 in meteobridge W/m2
12:24 75.4 °F 66.9 °F 30.27 in Calm     75% 0 in meteobridge W/m2
12:29 75.6 °F 67.5 °F 30.27 in Calm     76% 0 in meteobridge W/m2
12:34 75.7 °F 69.1 °F 30.27 in Calm     80% 0 in meteobridge W/m2
12:39 75.6 °F 67.5 °F 30.27 in Calm     76% 0 in meteobridge W/m2
12:44 75.6 °F 66.7 °F 30.27 in Calm     74% 0 in meteobridge W/m2
12:49 75.7 °F 66.9 °F 30.27 in Calm     74% 0 in meteobridge W/m2
12:54 75.7 °F 66.9 °F 30.27 in Calm     74% 0 in meteobridge W/m2
12:59 75.7 °F 68 °F 30.27 in Calm     77% 0 in meteobridge W/m2
13:04 75.7 °F 67.6 °F 30.26 in Calm     76% 0 in meteobridge W/m2
13:09 75.7 °F 66.4 °F 30.26 in Calm     73% 0 in meteobridge W/m2
13:14 76.1 °F 67.6 °F 30.26 in Calm     75% 0 in meteobridge W/m2
13:19 76.5 °F 67.6 °F 30.26 in Calm     74% 0 in meteobridge W/m2
13:24 76.6 °F 67.3 °F 30.25 in Calm     73% 0 in meteobridge W/m2
13:29 77 °F 67.6 °F 30.25 in Calm     73% 0 in meteobridge W/m2
13:34 77.2 °F 67.1 °F 30.24 in Calm     71% 0 in meteobridge W/m2
13:39 77.4 °F 66.7 °F 30.24 in Calm     70% 0 in meteobridge W/m2
13:44 77.4 °F 67.6 °F 30.24 in Calm     72% 0 in meteobridge W/m2
13:49 77.4 °F 67.6 °F 30.24 in Calm     72% 0 in meteobridge W/m2
13:54 77.4 °F 68 °F 30.24 in Calm     73% 0 in meteobridge W/m2
13:59 77.5 °F 68.9 °F 30.23 in Calm     75% 0 in meteobridge W/m2
14:04 77.5 °F 67.8 °F 30.23 in Calm     72% 0 in meteobridge W/m2
14:09 77.7 °F 69.1 °F 30.23 in Calm     75% 0 in meteobridge W/m2
14:14 77.5 °F 68.5 °F 30.23 in Calm     74% 0 in meteobridge W/m2
14:19 77.4 °F 68 °F 30.23 in Calm     73% 0 in meteobridge W/m2
14:24 77.2 °F 68.7 °F 30.23 in Calm     75% 0 in meteobridge W/m2
14:29 77 °F 68.9 °F 30.22 in Calm     76% 0 in meteobridge W/m2
14:34 76.8 °F 69.8 °F 30.22 in Calm     79% 0 in meteobridge W/m2
14:39 76.8 °F 69.1 °F 30.22 in Calm     77% 0 in meteobridge W/m2
14:44 76.6 °F 68.9 °F 30.22 in Calm     77% 0 in meteobridge W/m2
14:49 76.6 °F 69.3 °F 30.22 in Calm     78% 0 in meteobridge W/m2
14:54 76.6 °F 69.3 °F 30.22 in Calm     78% 0 in meteobridge W/m2
14:59 76.6 °F 68.9 °F 30.21 in Calm     77% 0 in meteobridge W/m2
15:04 76.6 °F 68.9 °F 30.21 in Calm     77% 0 in meteobridge W/m2
15:09 76.6 °F 68.9 °F 30.21 in Calm     77% 0 in meteobridge W/m2
15:14 76.8 °F 68.7 °F 30.21 in Calm     76% 0 in meteobridge W/m2
15:19 76.8 °F 67.8 °F 30.20 in Calm     74% 0 in meteobridge W/m2
15:24 77 °F 68 °F 30.20 in Calm     74% 0 in meteobridge W/m2
15:29 77.2 °F 68.7 °F 30.20 in Calm     75% 0 in meteobridge W/m2
15:34 77.4 °F 68.4 °F 30.20 in Calm     74% 0 in meteobridge W/m2
15:39 77.4 °F 67.6 °F 30.20 in Calm     72% 0 in meteobridge W/m2
15:44 77.5 °F 68.9 °F 30.20 in Calm     75% 0 in meteobridge W/m2
15:49 77.4 °F 68.4 °F 30.20 in Calm     74% 0 in meteobridge W/m2
15:54 77.4 °F 67.3 °F 30.20 in Calm     71% 0 in meteobridge W/m2
15:59 77.5 °F 67.5 °F 30.20 in Calm     71% 0 in meteobridge W/m2
16:04 77.7 °F 68.4 °F 30.19 in Calm     73% 0 in meteobridge W/m2
16:09 77.7 °F 69.1 °F 30.19 in Calm     75% 0 in meteobridge W/m2
16:14 77.7 °F 69.6 °F 30.19 in Calm     76% 0 in meteobridge W/m2
16:19 77.5 °F 68.5 °F 30.19 in Calm     74% 0 in meteobridge W/m2
16:24 77.5 °F 68.9 °F 30.19 in Calm     75% 0 in meteobridge W/m2
16:29 77.5 °F 69.4 °F 30.19 in Calm     76% 0 in meteobridge W/m2
16:34 77.5 °F 68.5 °F 30.19 in Calm     74% 0 in meteobridge W/m2
16:39 77.7 °F 67.6 °F 30.18 in Calm     71% 0 in meteobridge W/m2
16:44 78.1 °F 67.8 °F 30.18 in Calm     71% 0 in meteobridge W/m2
16:49 78.3 °F 68.9 °F 30.18 in Calm     73% 0 in meteobridge W/m2
16:54 78.4 °F 71.1 °F 30.18 in Calm     78% 0 in meteobridge W/m2
16:59 78.3 °F 68.5 °F 30.18 in Calm     72% 0 in meteobridge W/m2
17:04 78.3 °F 68 °F 30.18 in Calm     71% 0 in meteobridge W/m2
17:09 78.3 °F 69.6 °F 30.18 in Calm     75% 0 in meteobridge W/m2
17:14 78.1 °F 69.1 °F 30.18 in Calm     74% 0 in meteobridge W/m2
17:19 78.1 °F 68.7 °F 30.18 in Calm     73% 0 in meteobridge W/m2
17:24 78.1 °F 67.5 °F 30.18 in Calm     70% 0 in meteobridge W/m2
17:29 78.3 °F 68 °F 30.18 in Calm     71% 0 in meteobridge W/m2
17:34 78.3 °F 68.5 °F 30.18 in Calm     72% 0 in meteobridge W/m2
17:39 78.3 °F 68.5 °F 30.17 in Calm     72% 0 in meteobridge W/m2
17:44 78.3 °F 68.9 °F 30.17 in Calm     73% 0 in meteobridge W/m2
17:49 78.1 °F 69.1 °F 30.17 in Calm     74% 0 in meteobridge W/m2
17:54 78.1 °F 69.4 °F 30.17 in Calm     75% 0 in meteobridge W/m2
17:59 77.9 °F 70.2 °F 30.17 in Calm     77% 0 in meteobridge W/m2
18:04 77.5 °F 70.5 °F 30.17 in Calm     79% 0 in meteobridge W/m2
18:09 77.4 °F 70.3 °F 30.17 in Calm     79% 0 in meteobridge W/m2
18:14 77.2 °F 70.9 °F 30.17 in Calm     81% 0 in meteobridge W/m2
18:19 77 °F 70.3 °F 30.17 in Calm     80% 0 in meteobridge W/m2
18:24 76.6 °F 70 °F 30.17 in Calm     80% 0 in meteobridge W/m2
18:29 76.5 °F 70.2 °F 30.17 in Calm     81% 0 in meteobridge W/m2
18:34 76.5 °F 70.5 °F 30.17 in Calm     82% 0 in meteobridge W/m2
18:39 76.3 °F 70.7 °F 30.17 in Calm     83% 0 in meteobridge W/m2
18:44 75.9 °F 70.3 °F 30.17 in Calm     83% 0 in meteobridge W/m2
18:49 75.7 °F 70.5 °F 30.17 in Calm     84% 0 in meteobridge W/m2
18:54 75.6 °F 70.3 °F 30.17 in Calm     84% 0 in meteobridge W/m2
18:59 75.2 °F 70 °F 30.17 in Calm     84% 0 in meteobridge W/m2
19:04 74.8 °F 69.6 °F 30.17 in Calm     84% 0 in meteobridge W/m2
19:09 74.7 °F 69.4 °F 30.17 in Calm     84% 0 in meteobridge W/m2
19:14 74.3 °F 69.1 °F 30.17 in Calm     84% 0 in meteobridge W/m2
19:19 73.9 °F 68.7 °F 30.17 in Calm     84% 0 in meteobridge W/m2
19:24 73.8 °F 68.5 °F 30.17 in Calm     84% 0 in meteobridge W/m2
19:29 73.4 °F 68.2 °F 30.18 in Calm     84% 0 in meteobridge W/m2
19:33 73.2 °F 68.2 °F 30.17 in Calm     84% 0 in meteobridge W/m2
19:39 72.9 °F 67.8 °F 30.18 in Calm     84% 0 in meteobridge W/m2
19:44 72.5 °F 67.5 °F 30.18 in Calm     84% 0 in meteobridge W/m2
19:49 72.1 °F 67.1 °F 30.17 in Calm     84% 0 in meteobridge W/m2
19:54 72 °F 66.6 °F 30.17 in Calm     83% 0 in meteobridge W/m2
19:59 71.8 °F 66.4 °F 30.18 in Calm     83% 0 in meteobridge W/m2
20:04 71.2 °F 65.8 °F 30.18 in Calm     83% 0 in meteobridge W/m2
20:09 71.1 °F 65.7 °F 30.18 in Calm     83% 0 in meteobridge W/m2
20:14 70.9 °F 65.5 °F 30.18 in Calm     83% 0 in meteobridge W/m2
20:19 70.5 °F 65.1 °F 30.18 in Calm     83% 0 in meteobridge W/m2
20:24 70.3 °F 64.6 °F 30.18 in Calm     82% 0 in meteobridge W/m2
20:29 70.2 °F 64.4 °F 30.18 in Calm     82% 0 in meteobridge W/m2
20:34 70.2 °F 64.4 °F 30.18 in Calm     82% 0 in meteobridge W/m2
20:39 70 °F 64.2 °F 30.19 in Calm     82% 0 in meteobridge W/m2
20:44 69.8 °F 64 °F 30.19 in Calm     82% 0 in meteobridge W/m2
20:49 69.6 °F 63.9 °F 30.19 in Calm     82% 0 in meteobridge W/m2
20:54 69.4 °F 63.3 °F 30.19 in Calm     81% 0 in meteobridge W/m2
20:59 69.3 °F 63.1 °F 30.19 in Calm     81% 0 in meteobridge W/m2
21:04 69.1 °F 63 °F 30.20 in Calm     81% 0 in meteobridge W/m2
21:09 68.9 °F 62.8 °F 30.20 in Calm     81% 0 in meteobridge W/m2
21:14 68.7 °F 62.6 °F 30.19 in Calm     81% 0 in meteobridge W/m2
21:19 68.7 °F 62.6 °F 30.19 in Calm     81% 0 in meteobridge W/m2
21:24 68.5 °F 62.1 °F 30.20 in Calm     80% 0 in meteobridge W/m2
21:29 68.5 °F 62.1 °F 30.20 in Calm     80% 0 in meteobridge W/m2
21:34 68.4 °F 61.9 °F 30.20 in Calm     80% 0 in meteobridge W/m2
21:39 68.4 °F 61.9 °F 30.20 in Calm     80% 0 in meteobridge W/m2
21:44 68.4 °F 61.9 °F 30.21 in Calm     80% 0 in meteobridge W/m2
21:49 68.2 °F 61.7 °F 30.21 in Calm     80% 0 in meteobridge W/m2
21:54 68.2 °F 61.7 °F 30.20 in Calm     80% 0 in meteobridge W/m2
21:59 68 °F 61.5 °F 30.21 in Calm     80% 0 in meteobridge W/m2
22:04 68 °F 61.5 °F 30.21 in Calm     80% 0 in meteobridge W/m2
22:09 67.8 °F 61.3 °F 30.21 in Calm     80% 0 in meteobridge W/m2
22:14 67.8 °F 61.3 °F 30.21 in Calm     80% 0 in meteobridge W/m2
22:19 67.8 °F 61.3 °F 30.21 in Calm     80% 0 in meteobridge W/m2
22:24 67.8 °F 61.3 °F 30.21 in Calm     80% 0 in meteobridge W/m2
22:29 67.6 °F 61.2 °F 30.21 in Calm     80% 0 in meteobridge W/m2
22:34 67.6 °F 61 °F 30.21 in Calm     79% 0 in meteobridge W/m2
22:39 67.6 °F 61 °F 30.21 in Calm     79% 0 in meteobridge W/m2
22:44 67.6 °F 61 °F 30.21 in Calm     79% 0 in meteobridge W/m2
22:49 67.5 °F 60.8 °F 30.21 in Calm     79% 0 in meteobridge W/m2
22:54 67.5 °F 60.8 °F 30.21 in Calm     79% 0 in meteobridge W/m2
22:59 67.5 °F 60.8 °F 30.21 in Calm     79% 0 in meteobridge W/m2
23:04 67.3 °F 60.6 °F 30.21 in Calm     79% 0 in meteobridge W/m2
23:09 67.3 °F 60.6 °F 30.20 in Calm     79% 0 in meteobridge W/m2
23:14 67.3 °F 60.6 °F 30.20 in Calm     79% 0 in meteobridge W/m2
23:19 67.1 °F 60.4 °F 30.20 in Calm     79% 0 in meteobridge W/m2
23:24 67.1 °F 60.1 °F 30.20 in Calm     78% 0 in meteobridge W/m2
23:29 66.9 °F 59.9 °F 30.20 in Calm     78% 0 in meteobridge W/m2
23:34 66.9 °F 59.9 °F 30.20 in Calm     78% 0 in meteobridge W/m2
23:39 66.9 °F 59.9 °F 30.20 in Calm     78% 0 in meteobridge W/m2
23:44 66.7 °F 59.7 °F 30.20 in Calm     78% 0 in meteobridge W/m2
23:49 66.7 °F 59.7 °F 30.20 in Calm     78% 0 in meteobridge W/m2
23:54 66.7 °F 59.7 °F 30.20 in Calm     78% 0 in meteobridge W/m2
23:59 66.7 °F 59.7 °F 30.20 in Calm     78% 0 in meteobridge W/m2
EllijayWeather
Compliments of Weather Underground - 2.5 mb